NFTL/HPA METAR and TAF weather

Enter ICAO airport designator
Station Type Date Time Source
NFTL METAR 2022/01/23 06:00 UTC NOAA

NFTL 230600Z 14009KT 9999 FEW017 28/22 Q////


Station Type Date Time Source
NFTL Decoded METAR 2022/01/23 06:00 UTC NOAA

Haapai, Tonga (NFTL) 19-48S 174-21W 3M
Jan 23, 2022 - 01:00 AM EST / 2022.01.23 0600 UTC
Wind: from the SE (140 degrees) at 10 MPH (9 KT):0
Visibility: greater than 7 mile(s):0
Sky conditions: mostly clear
Temperature: 82 F (28 C)
Dew Point: 71 F (22 C)
Relative Humidity: 69%
ob: NFTL 230600Z 14009KT 9999 FEW017 28/22 Q////
cycle: 6

Station Type Date Time Source
NFTL TAF 2018/02/21 17:19 UTC NOAA

TAF NFTL 211605Z 2117/2208 12010KT 9999 SCT018

Example: see airport list